createdAt,value
2018-09-21T00:00:12.368Z,1008.11
2018-09-21T00:01:12.352Z,1008.10
2018-09-21T00:02:12.338Z,1008.13
2018-09-21T00:03:12.319Z,1008.10
2018-09-21T00:04:12.306Z,1008.10
2018-09-21T00:05:12.288Z,1008.10
2018-09-21T00:06:12.270Z,1008.10
2018-09-21T00:07:12.256Z,1008.07
2018-09-21T00:08:12.243Z,1008.10
2018-09-21T00:09:12.230Z,1008.09
2018-09-21T00:10:12.415Z,1008.08
2018-09-21T00:11:12.194Z,1008.02
2018-09-21T00:12:12.177Z,1008.02
2018-09-21T00:13:12.161Z,1008.06
2018-09-21T00:14:12.146Z,1007.99
2018-09-21T00:15:12.128Z,1008.02
2018-09-21T00:16:12.125Z,1008.01
2018-09-21T00:17:12.100Z,1008.00
2018-09-21T00:18:12.082Z,1007.99
2018-09-21T00:19:12.065Z,1008.02
2018-09-21T00:20:12.058Z,1008.02
2018-09-21T00:21:12.030Z,1007.98
2018-09-21T00:22:12.019Z,1007.97
2018-09-21T00:23:12.002Z,1007.93
2018-09-21T00:24:11.986Z,1007.92
2018-09-21T00:25:11.966Z,1007.93
2018-09-21T00:26:11.955Z,1007.88
2018-09-21T00:27:11.945Z,1007.89
2018-09-21T00:28:11.920Z,1007.84
2018-09-21T00:29:11.906Z,1007.80
2018-09-21T00:30:11.888Z,1007.78
2018-09-21T00:31:11.874Z,1007.79
2018-09-21T00:32:11.858Z,1007.76
2018-09-21T00:33:11.841Z,1007.76
2018-09-21T00:34:11.828Z,1007.73
2018-09-21T00:35:11.804Z,1007.79
2018-09-21T00:36:11.795Z,1007.75
2018-09-21T00:37:11.777Z,1007.78
2018-09-21T00:38:11.759Z,1007.78
2018-09-21T00:39:11.740Z,1007.80
2018-09-21T00:40:11.730Z,1007.79
2018-09-21T00:41:11.713Z,1007.76
2018-09-21T00:42:11.696Z,1007.71
2018-09-21T00:43:11.676Z,1007.81
2018-09-21T00:44:11.664Z,1007.79
2018-09-21T00:45:11.650Z,1007.78
2018-09-21T00:46:11.630Z,1007.80
2018-09-21T00:47:11.619Z,1007.75
2018-09-21T00:48:11.598Z,1007.74
2018-09-21T00:49:11.582Z,1007.75
2018-09-21T00:50:11.564Z,1007.69
2018-09-21T00:51:11.557Z,1007.67
2018-09-21T00:52:11.540Z,1007.65
2018-09-21T00:53:11.517Z,1007.62
2018-09-21T00:54:11.502Z,1007.64
2018-09-21T00:55:11.484Z,1007.63
2018-09-21T00:56:11.469Z,1007.63
2018-09-21T00:57:11.461Z,1007.59
2018-09-21T00:58:11.437Z,1007.63
2018-09-21T00:59:11.420Z,1007.57
2018-09-21T01:00:11.405Z,1007.61
2018-09-21T01:01:11.386Z,1007.60
2018-09-21T01:02:11.371Z,1007.61
2018-09-21T01:03:11.358Z,1007.57
2018-09-21T01:04:11.341Z,1007.58
2018-09-21T01:05:11.322Z,1007.59
2018-09-21T01:06:11.311Z,1007.62
2018-09-21T01:07:11.286Z,1007.61
2018-09-21T01:08:11.273Z,1007.63
2018-09-21T01:09:11.257Z,1007.61
2018-09-21T01:10:11.249Z,1007.55
2018-09-21T01:11:11.230Z,1007.57
2018-09-21T01:12:11.207Z,1007.50
2018-09-21T01:13:11.191Z,1007.51
2018-09-21T01:14:11.175Z,1007.53
2018-09-21T01:15:11.156Z,1007.54
2018-09-21T01:16:11.149Z,1007.56
2018-09-21T01:17:11.125Z,1007.56
2018-09-21T01:18:11.107Z,1007.52
2018-09-21T01:19:11.093Z,1007.49
2018-09-21T01:20:11.075Z,1007.46
2018-09-21T01:21:11.059Z,1007.44
2018-09-21T01:22:11.045Z,1007.36
2018-09-21T01:23:11.069Z,1007.39
2018-09-21T01:24:11.012Z,1007.37
2018-09-21T01:25:10.995Z,1007.32
2018-09-21T01:26:10.973Z,1007.37
2018-09-21T01:27:10.960Z,1007.31
2018-09-21T01:28:10.949Z,1007.32
2018-09-21T01:29:10.931Z,1007.32
2018-09-21T01:30:10.910Z,1007.31
2018-09-21T01:31:10.902Z,1007.31
2018-09-21T01:32:10.881Z,1007.26
2018-09-21T01:33:11.365Z,1007.25
2018-09-21T01:34:10.851Z,1007.27
2018-09-21T01:35:10.830Z,1007.28
2018-09-21T01:36:10.817Z,1007.30
2018-09-21T01:37:10.799Z,1007.31
2018-09-21T01:38:10.780Z,1007.33
2018-09-21T01:39:10.767Z,1007.33
2018-09-21T01:40:10.751Z,1007.34
2018-09-21T01:41:10.735Z,1007.31
2018-09-21T01:42:10.715Z,1007.30
2018-09-21T01:43:10.702Z,1007.27
2018-09-21T01:44:10.681Z,1007.26
2018-09-21T01:45:10.666Z,1007.26
2018-09-21T01:46:10.648Z,1007.23
2018-09-21T01:47:10.632Z,1007.23
2018-09-21T01:48:10.620Z,1007.16
2018-09-21T01:49:10.601Z,1007.19
2018-09-21T01:50:10.583Z,1007.18
2018-09-21T01:51:10.572Z,1007.15
2018-09-21T01:52:10.550Z,1007.15
2018-09-21T01:53:10.535Z,1007.17
2018-09-21T01:54:10.517Z,1007.10
2018-09-21T01:55:10.503Z,1007.06
2018-09-21T01:56:10.487Z,1007.12
2018-09-21T01:57:10.464Z,1007.11
2018-09-21T01:58:10.449Z,1007.05
2018-09-21T01:59:10.435Z,1007.07
2018-09-21T02:00:10.416Z,1007.04
2018-09-21T02:01:10.407Z,1007.03
2018-09-21T02:02:10.385Z,1007.10
2018-09-21T02:03:10.365Z,1007.10
2018-09-21T02:04:10.356Z,1007.10
2018-09-21T02:05:10.339Z,1007.10
2018-09-21T02:06:10.316Z,1007.10
2018-09-21T02:07:10.307Z,1007.11
2018-09-21T02:08:10.283Z,1007.09
2018-09-21T02:09:10.265Z,1007.09
2018-09-21T02:10:10.253Z,1007.11
2018-09-21T02:11:10.233Z,1007.10
2018-09-21T02:12:10.225Z,1007.05
2018-09-21T02:13:10.197Z,1007.02
2018-09-21T02:14:10.188Z,1007.02
2018-09-21T02:15:10.171Z,1007.00
2018-09-21T02:16:10.155Z,1006.97
2018-09-21T02:17:10.139Z,1006.94
2018-09-21T02:18:10.121Z,1006.89
2018-09-21T02:19:10.105Z,1006.93
2018-09-21T02:20:10.086Z,1006.91
2018-09-21T02:21:10.071Z,1006.98
2018-09-21T02:22:10.051Z,1006.98
2018-09-21T02:23:10.034Z,1006.96
2018-09-21T02:24:10.021Z,1006.96
2018-09-21T02:25:10.003Z,1006.97
2018-09-21T02:26:09.986Z,1006.96
2018-09-21T02:27:09.968Z,1006.93
2018-09-21T02:28:09.953Z,1006.97
2018-09-21T02:29:09.933Z,1006.95
2018-09-21T02:30:09.923Z,1006.94
2018-09-21T02:31:09.905Z,1006.92
2018-09-21T02:32:09.888Z,1006.91
2018-09-21T02:33:09.870Z,1006.88
2018-09-21T02:34:09.859Z,1006.86
2018-09-21T02:35:09.836Z,1006.84
2018-09-21T02:36:09.828Z,1006.84
2018-09-21T02:37:09.809Z,1006.81
2018-09-21T02:38:09.787Z,1006.81
2018-09-21T02:39:09.769Z,1006.75
2018-09-21T02:40:09.751Z,1006.74
2018-09-21T02:41:09.739Z,1006.77
2018-09-21T02:42:09.721Z,1006.79
2018-09-21T02:43:09.709Z,1006.75
2018-09-21T02:44:09.690Z,1006.76
2018-09-21T02:45:09.675Z,1006.76
2018-09-21T02:46:09.661Z,1006.73
2018-09-21T02:47:09.642Z,1006.73
2018-09-21T02:48:09.630Z,1006.72
2018-09-21T02:49:09.608Z,1006.71
2018-09-21T02:50:09.593Z,1006.72
2018-09-21T02:51:09.572Z,1006.71
2018-09-21T02:52:09.559Z,1006.71
2018-09-21T02:53:09.539Z,1006.76
2018-09-21T02:54:09.527Z,1006.76
2018-09-21T02:55:09.514Z,1006.72
2018-09-21T02:56:09.495Z,1006.69
2018-09-21T02:57:09.475Z,1006.64
2018-09-21T02:58:09.460Z,1006.59
2018-09-21T02:59:09.453Z,1006.55
2018-09-21T03:00:09.424Z,1006.52
2018-09-21T03:01:09.412Z,1006.54
2018-09-21T03:02:09.396Z,1006.48
2018-09-21T03:03:09.378Z,1006.50
2018-09-21T03:04:09.361Z,1006.49
2018-09-21T03:05:09.345Z,1006.49
2018-09-21T03:06:09.334Z,1006.55
2018-09-21T03:07:09.313Z,1006.53
2018-09-21T03:08:09.299Z,1006.50
2018-09-21T03:09:09.285Z,1006.46
2018-09-21T03:10:09.263Z,1006.41
2018-09-21T03:11:09.241Z,1006.44
2018-09-21T03:12:09.232Z,1006.47
2018-09-21T03:13:09.250Z,1006.42
2018-09-21T03:14:09.197Z,1006.39
2018-09-21T03:15:09.180Z,1006.36
2018-09-21T03:16:09.169Z,1006.33
2018-09-21T03:17:09.151Z,1006.36
2018-09-21T03:18:09.127Z,1006.34
2018-09-21T03:19:09.120Z,1006.35
2018-09-21T03:20:09.100Z,1006.37
2018-09-21T03:21:09.081Z,1006.37
2018-09-21T03:22:09.063Z,1006.39
2018-09-21T03:23:09.046Z,1006.37
2018-09-21T03:24:09.085Z,1006.36
2018-09-21T03:25:09.013Z,1006.34
2018-09-21T03:26:09.003Z,1006.32
2018-09-21T03:27:08.987Z,1006.31
2018-09-21T03:28:08.967Z,1006.26
2018-09-21T03:29:08.960Z,1006.21
2018-09-21T03:30:08.937Z,1006.20
2018-09-21T03:31:08.919Z,1006.21
2018-09-21T03:32:08.925Z,1006.20
2018-09-21T03:33:08.889Z,1006.24
2018-09-21T03:34:08.881Z,1006.21
2018-09-21T03:35:08.863Z,1006.22
2018-09-21T03:36:08.841Z,1006.22
2018-09-21T03:37:08.824Z,1006.20
2018-09-21T03:38:08.806Z,1006.16
2018-09-21T03:39:08.804Z,1006.15
2018-09-21T03:40:08.779Z,1006.15
2018-09-21T03:41:08.760Z,1006.16
2018-09-21T03:42:08.744Z,1006.19
2018-09-21T03:43:08.735Z,1006.19
2018-09-21T03:44:08.713Z,1006.13
2018-09-21T03:45:08.699Z,1006.11
2018-09-21T03:46:08.684Z,1006.12
2018-09-21T03:47:08.665Z,1006.14
2018-09-21T03:48:08.650Z,1006.09
2018-09-21T03:49:08.633Z,1006.12
2018-09-21T03:50:08.620Z,1006.13
2018-09-21T03:51:08.603Z,1006.04
2018-09-21T03:52:08.583Z,1006.05
2018-09-21T03:53:08.571Z,1006.05
2018-09-21T03:54:08.551Z,1006.05
2018-09-21T03:55:08.539Z,1006.01
2018-09-21T03:56:08.525Z,1006.01
2018-09-21T03:57:08.510Z,1006.00
2018-09-21T03:58:08.503Z,1006.00
2018-09-21T03:59:08.482Z,1005.98
2018-09-21T04:00:08.461Z,1005.96
2018-09-21T04:01:08.497Z,1005.97
2018-09-21T04:02:08.428Z,1005.90
2018-09-21T04:03:08.412Z,1005.93
2018-09-21T04:04:08.392Z,1005.92
2018-09-21T04:05:08.382Z,1005.92
2018-09-21T04:06:08.362Z,1005.86
2018-09-21T04:07:08.345Z,1005.92
2018-09-21T04:08:08.332Z,1005.85
2018-09-21T04:09:08.315Z,1005.89
2018-09-21T04:10:08.295Z,1005.89
2018-09-21T04:11:08.294Z,1005.89
2018-09-21T04:12:08.272Z,1005.83
2018-09-21T04:13:08.257Z,1005.86
2018-09-21T04:14:08.241Z,1005.82
2018-09-21T04:15:08.228Z,1005.81
2018-09-21T04:16:08.204Z,1005.80
2018-09-21T04:17:08.188Z,1005.80
2018-09-21T04:18:08.226Z,1005.79
2018-09-21T04:19:08.158Z,1005.76
2018-09-21T04:20:08.153Z,1005.80
2018-09-21T04:21:08.124Z,1005.72
2018-09-21T04:22:08.164Z,1005.74
2018-09-21T04:23:08.145Z,1005.77
2018-09-21T04:24:08.082Z,1005.72
2018-09-21T04:25:08.066Z,1005.75
2018-09-21T04:26:08.053Z,1005.74
2018-09-21T04:27:08.033Z,1005.69
2018-09-21T04:28:08.018Z,1005.74
2018-09-21T04:29:08.000Z,1005.72
2018-09-21T04:30:07.984Z,1005.72
2018-09-21T04:31:07.968Z,1005.70
2018-09-21T04:32:07.958Z,1005.68
2018-09-21T04:33:07.938Z,1005.72
2018-09-21T04:34:07.922Z,1005.69
2018-09-21T04:35:07.909Z,1005.71
2018-09-21T04:36:07.956Z,1005.67
2018-09-21T04:37:07.875Z,1005.70
2018-09-21T04:38:07.861Z,1005.69
2018-09-21T04:39:07.845Z,1005.66
2018-09-21T04:40:07.833Z,1005.67
2018-09-21T04:41:07.818Z,1005.67
2018-09-21T04:42:07.794Z,1005.66
2018-09-21T04:43:07.780Z,1005.65
2018-09-21T04:44:07.768Z,1005.65
2018-09-21T04:45:07.750Z,1005.69
2018-09-21T04:46:07.738Z,1005.62
2018-09-21T04:47:07.722Z,1005.64
2018-09-21T04:48:07.706Z,1005.61
2018-09-21T04:49:07.692Z,1005.61
2018-09-21T04:50:07.671Z,1005.56
2018-09-21T04:51:07.663Z,1005.56
2018-09-21T04:52:07.644Z,1005.57
2018-09-21T04:53:07.631Z,1005.55
2018-09-21T04:54:07.617Z,1005.52
2018-09-21T04:55:07.601Z,1005.51
2018-09-21T04:56:07.579Z,1005.53
2018-09-21T04:57:07.568Z,1005.50
2018-09-21T04:58:07.549Z,1005.50
2018-09-21T04:59:07.532Z,1005.51
2018-09-21T05:00:07.514Z,1005.49
2018-09-21T05:01:07.502Z,1005.45
2018-09-21T05:02:07.484Z,1005.48
2018-09-21T05:03:07.468Z,1005.46
2018-09-21T05:04:07.454Z,1005.47
2018-09-21T05:05:07.442Z,1005.42
2018-09-21T05:06:07.422Z,1005.44
2018-09-21T05:07:07.408Z,1005.43
2018-09-21T05:08:07.395Z,1005.41
2018-09-21T05:09:07.382Z,1005.41
2018-09-21T05:10:07.360Z,1005.44
2018-09-21T05:11:07.342Z,1005.40
2018-09-21T05:12:07.333Z,1005.38
2018-09-21T05:13:07.316Z,1005.39
2018-09-21T05:14:07.298Z,1005.38
2018-09-21T05:15:07.281Z,1005.37
2018-09-21T05:16:07.268Z,1005.37
2018-09-21T05:17:07.252Z,1005.38
2018-09-21T05:18:07.233Z,1005.36
2018-09-21T05:19:07.222Z,1005.38
2018-09-21T05:20:07.209Z,1005.36
2018-09-21T05:21:07.186Z,1005.35
2018-09-21T05:22:07.173Z,1005.39
2018-09-21T05:23:07.160Z,1005.39
2018-09-21T05:24:07.141Z,1005.36
2018-09-21T05:25:07.144Z,1005.37
2018-09-21T05:26:07.110Z,1005.41
2018-09-21T05:27:07.101Z,1005.40
2018-09-21T05:28:07.090Z,1005.40
2018-09-21T05:29:07.062Z,1005.40
2018-09-21T05:30:07.046Z,1005.42
2018-09-21T05:31:07.037Z,1005.40
2018-09-21T05:32:07.020Z,1005.39
2018-09-21T05:33:07.005Z,1005.39
2018-09-21T05:34:07.001Z,1005.37
2018-09-21T05:35:07.037Z,1005.35
2018-09-21T05:36:06.957Z,1005.34
2018-09-21T05:37:06.942Z,1005.38
2018-09-21T05:38:06.924Z,1005.36
2018-09-21T05:39:06.912Z,1005.34
2018-09-21T05:40:06.894Z,1005.38
2018-09-21T05:41:06.877Z,1005.34
2018-09-21T05:42:06.864Z,1005.39
2018-09-21T05:43:06.846Z,1005.36
2018-09-21T05:44:06.837Z,1005.41
2018-09-21T05:45:06.816Z,1005.44
2018-09-21T05:46:06.804Z,1005.43
2018-09-21T05:47:06.787Z,1005.45
2018-09-21T05:48:06.770Z,1005.46
2018-09-21T05:49:06.753Z,1005.43
2018-09-21T05:50:06.738Z,1005.40
2018-09-21T05:51:06.722Z,1005.42
2018-09-21T05:52:06.708Z,1005.41
2018-09-21T05:53:06.700Z,1005.35
2018-09-21T05:54:06.677Z,1005.43
2018-09-21T05:55:06.662Z,1005.39
2018-09-21T05:56:06.706Z,1005.40
2018-09-21T05:57:06.632Z,1005.39
2018-09-21T05:58:06.618Z,1005.42
2018-09-21T05:59:06.610Z,1005.37
2018-09-21T06:00:06.588Z,1005.33
2018-09-21T06:01:06.581Z,1005.34
2018-09-21T06:02:06.566Z,1005.36
2018-09-21T06:03:06.544Z,1005.31
2018-09-21T06:04:06.528Z,1005.28
2018-09-21T06:05:06.514Z,1005.27
2018-09-21T06:06:06.501Z,1005.27
2018-09-21T06:07:06.481Z,1005.26
2018-09-21T06:08:06.491Z,1005.23
2018-09-21T06:09:06.454Z,1005.21
2018-09-21T06:10:06.437Z,1005.20
2018-09-21T06:11:06.422Z,1005.24
2018-09-21T06:12:06.410Z,1005.24
2018-09-21T06:13:06.402Z,1005.22
2018-09-21T06:14:06.435Z,1005.24
2018-09-21T06:15:06.369Z,1005.21
2018-09-21T06:16:06.348Z,1005.22
2018-09-21T06:17:06.336Z,1005.26
2018-09-21T06:18:06.320Z,1005.24
2018-09-21T06:19:06.305Z,1005.26
2018-09-21T06:20:12.081Z,1005.20
2018-09-21T06:21:06.307Z,1005.21
2018-09-21T06:22:06.262Z,1005.15
2018-09-21T06:23:06.332Z,1005.14
2018-09-21T06:24:06.230Z,1005.17
2018-09-21T06:25:06.221Z,1005.18
2018-09-21T06:26:06.205Z,1005.21
2018-09-21T06:27:06.186Z,1005.19
2018-09-21T06:28:06.181Z,1005.16
2018-09-21T06:29:06.156Z,1005.19
2018-09-21T06:30:06.143Z,1005.21
2018-09-21T06:31:06.125Z,1005.14
2018-09-21T06:32:06.230Z,1005.12
2018-09-21T06:33:06.104Z,1005.12
2018-09-21T06:34:06.083Z,1005.18
2018-09-21T06:35:06.070Z,1005.13
2018-09-21T06:36:06.058Z,1005.19
2018-09-21T06:37:06.038Z,1005.16
2018-09-21T06:38:06.056Z,1005.15
2018-09-21T06:39:06.014Z,1005.10
2018-09-21T06:40:05.997Z,1005.11
2018-09-21T06:41:06.052Z,1005.09
2018-09-21T06:42:05.964Z,1005.08
2018-09-21T06:43:05.954Z,1005.04
2018-09-21T06:44:05.941Z,1005.01
2018-09-21T06:45:05.926Z,1005.04
2018-09-21T06:46:05.912Z,1005.05
2018-09-21T06:47:05.894Z,1005.04
2018-09-21T06:48:05.881Z,1005.04
2018-09-21T06:49:05.870Z,1005.03
2018-09-21T06:50:05.858Z,1005.02
2018-09-21T06:51:05.840Z,1005.00
2018-09-21T06:52:05.827Z,1005.02
2018-09-21T06:53:05.813Z,1005.03
2018-09-21T06:54:05.800Z,1005.02
2018-09-21T06:55:05.785Z,1005.05
2018-09-21T06:56:05.776Z,1005.06
2018-09-21T06:57:05.759Z,1005.06
2018-09-21T06:58:05.742Z,1005.09
2018-09-21T06:59:05.734Z,1005.11
2018-09-21T07:00:05.719Z,1005.12
2018-09-21T07:01:05.702Z,1005.06
2018-09-21T07:02:05.846Z,1005.10
2018-09-21T07:03:05.675Z,1005.07
2018-09-21T07:04:05.668Z,1005.05
2018-09-21T07:05:05.646Z,1005.05
2018-09-21T07:06:05.635Z,1005.11
2018-09-21T07:07:05.631Z,1005.02
2018-09-21T07:08:05.604Z,1005.16
2018-09-21T07:09:05.593Z,1005.06
2018-09-21T07:10:05.629Z,1005.07
2018-09-21T07:11:05.576Z,1005.24
2018-09-21T07:12:05.555Z,1005.33
2018-09-21T07:13:05.538Z,1005.22
2018-09-21T07:14:05.534Z,1005.33
2018-09-21T07:15:05.516Z,1005.29
2018-09-21T07:16:05.500Z,1005.26
2018-09-21T07:17:05.489Z,1005.21
2018-09-21T07:18:05.523Z,1005.18
2018-09-21T07:19:05.462Z,1005.10
2018-09-21T07:20:05.452Z,1005.14
2018-09-21T07:21:05.438Z,1005.17
2018-09-21T07:22:05.429Z,1005.01
2018-09-21T07:23:05.415Z,1005.03
2018-09-21T07:24:05.406Z,1005.04
2018-09-21T07:25:05.389Z,1005.09
2018-09-21T07:26:05.373Z,1005.07
2018-09-21T07:27:05.363Z,1005.12
2018-09-21T07:28:05.352Z,1005.04
2018-09-21T07:29:05.344Z,1005.06
2018-09-21T07:30:05.331Z,1005.07
2018-09-21T07:31:05.366Z,1004.98
2018-09-21T07:32:05.312Z,1004.90
2018-09-21T07:33:05.291Z,1004.97
2018-09-21T07:34:05.281Z,1004.93
2018-09-21T07:35:05.268Z,1004.89
2018-09-21T07:36:05.256Z,1004.86
2018-09-21T07:37:05.250Z,1004.82
2018-09-21T07:38:05.234Z,1004.83
2018-09-21T07:39:05.224Z,1004.75
2018-09-21T07:40:05.210Z,1004.72
2018-09-21T07:41:05.207Z,1004.82
2018-09-21T07:42:05.192Z,1004.78
2018-09-21T07:43:05.326Z,1004.77
2018-09-21T07:44:05.170Z,1004.82
2018-09-21T07:45:05.163Z,1004.86
2018-09-21T07:46:05.145Z,1004.85
2018-09-21T07:47:05.137Z,1004.86
2018-09-21T07:48:05.125Z,1004.92
2018-09-21T07:49:05.186Z,1005.24
2018-09-21T07:50:05.102Z,1005.27
2018-09-21T07:51:05.087Z,1005.13
2018-09-21T07:52:05.088Z,1005.28
2018-09-21T07:53:05.062Z,1005.38
2018-09-21T07:54:05.057Z,1005.36
2018-09-21T07:55:05.044Z,1005.38
2018-09-21T07:56:05.031Z,1005.50
2018-09-21T07:57:05.026Z,1005.19
2018-09-21T07:58:05.008Z,1005.23
2018-09-21T07:59:04.996Z,1006.04
2018-09-21T08:00:04.998Z,1006.38
2018-09-21T08:01:04.987Z,1006.99
2018-09-21T08:02:04.960Z,1007.40
2018-09-21T08:03:04.962Z,1007.86
2018-09-21T08:04:04.946Z,1008.29
2018-09-21T08:05:04.972Z,1008.36
2018-09-21T08:06:04.923Z,1008.81
2018-09-21T08:07:04.931Z,1009.06
2018-09-21T08:08:04.912Z,1009.27
2018-09-21T08:09:04.892Z,1009.71
2018-09-21T08:10:04.882Z,1010.08
2018-09-21T08:11:04.872Z,1010.45
2018-09-21T08:12:04.862Z,1010.55
2018-09-21T08:13:04.856Z,1009.77
2018-09-21T08:14:04.842Z,1008.95
2018-09-21T08:15:04.834Z,1008.62
2018-09-21T08:16:04.826Z,1007.62
2018-09-21T08:17:04.818Z,1007.57
2018-09-21T08:18:04.806Z,1007.34
2018-09-21T08:19:04.800Z,1007.27
2018-09-21T08:20:04.794Z,1008.20
2018-09-21T08:21:04.782Z,1009.57
2018-09-21T08:22:04.770Z,1010.48
2018-09-21T08:23:04.764Z,1011.09
2018-09-21T08:24:04.760Z,1010.42
2018-09-21T08:25:04.775Z,1010.31
2018-09-21T08:26:04.742Z,1010.49
2018-09-21T08:27:04.733Z,1008.91
2018-09-21T08:28:04.730Z,1010.84
2018-09-21T08:29:04.722Z,1008.59
2018-09-21T08:30:04.710Z,1005.20
2018-09-21T08:31:04.705Z,1004.80
2018-09-21T08:32:04.698Z,1004.44
2018-09-21T08:33:04.736Z,1004.34
2018-09-21T08:34:04.676Z,1004.25
2018-09-21T08:35:04.672Z,1004.22
2018-09-21T08:36:04.663Z,1004.25
2018-09-21T08:37:04.717Z,1004.18
2018-09-21T08:38:04.674Z,1004.05
2018-09-21T08:39:04.644Z,1004.16
2018-09-21T08:40:04.635Z,1004.11
2018-09-21T08:41:04.632Z,1004.15
2018-09-21T08:42:04.620Z,1004.10
2018-09-21T08:43:04.615Z,1003.97
2018-09-21T08:44:04.604Z,1003.96
2018-09-21T08:45:04.598Z,1003.97
2018-09-21T08:46:04.595Z,1003.93
2018-09-21T08:47:04.582Z,1003.90
2018-09-21T08:48:04.582Z,1003.86
2018-09-21T08:49:04.570Z,1003.91
2018-09-21T08:50:04.565Z,1003.90
2018-09-21T08:51:04.552Z,1003.87
2018-09-21T08:52:04.548Z,1003.86
2018-09-21T08:53:04.539Z,1003.86
2018-09-21T08:54:04.528Z,1003.89
2018-09-21T08:55:04.556Z,1003.92
2018-09-21T08:56:04.512Z,1003.82
2018-09-21T08:57:04.510Z,1003.88
2018-09-21T08:58:04.503Z,1003.94
2018-09-21T08:59:04.492Z,1003.91
2018-09-21T09:00:04.488Z,1003.85
2018-09-21T09:01:04.480Z,1003.62
2018-09-21T09:02:04.472Z,1003.78
2018-09-21T09:03:04.541Z,1003.90
2018-09-21T09:04:04.458Z,1003.95
2018-09-21T09:05:04.450Z,1003.93
2018-09-21T09:06:04.444Z,1003.84
2018-09-21T09:07:04.432Z,1003.77
2018-09-21T09:08:04.424Z,1003.73
2018-09-21T09:09:04.420Z,1003.70
2018-09-21T09:10:04.424Z,1003.69
2018-09-21T09:11:04.405Z,1003.65
2018-09-21T09:12:04.402Z,1003.62
2018-09-21T09:13:04.392Z,1003.56
2018-09-21T09:14:04.383Z,1003.53
2018-09-21T09:15:04.379Z,1003.50
2018-09-21T09:16:04.372Z,1003.54
2018-09-21T09:17:04.362Z,1003.62
2018-09-21T09:18:04.359Z,1003.58
2018-09-21T09:19:04.350Z,1003.53
2018-09-21T09:20:04.340Z,1003.54
2018-09-21T09:21:04.332Z,1003.51
2018-09-21T09:22:04.333Z,1003.40
2018-09-21T09:23:04.366Z,1003.46
2018-09-21T09:24:04.314Z,1003.41
2018-09-21T09:25:04.378Z,1003.45
2018-09-21T09:26:04.304Z,1003.51
2018-09-21T09:27:04.293Z,1003.39
2018-09-21T09:28:04.286Z,1003.43
2018-09-21T09:29:04.280Z,1003.45
2018-09-21T09:30:04.331Z,1003.37
2018-09-21T09:31:04.267Z,1003.38
2018-09-21T09:32:04.259Z,1003.33
2018-09-21T09:33:04.253Z,1003.35
2018-09-21T09:34:04.244Z,1003.36
2018-09-21T09:35:04.237Z,1003.31
2018-09-21T09:36:04.236Z,1003.28
2018-09-21T09:37:04.227Z,1003.21
2018-09-21T09:38:04.224Z,1003.31
2018-09-21T09:39:04.214Z,1003.29
2018-09-21T09:40:04.208Z,1003.27
2018-09-21T09:41:04.205Z,1003.34
2018-09-21T09:42:04.198Z,1003.20
2018-09-21T09:43:04.358Z,1003.19
2018-09-21T09:44:04.192Z,1003.23
2018-09-21T09:45:04.176Z,1003.29
2018-09-21T09:46:04.174Z,1003.28
2018-09-21T09:47:04.160Z,1003.14
2018-09-21T09:48:04.156Z,1003.10
2018-09-21T09:49:04.276Z,1003.06
2018-09-21T09:50:04.145Z,1003.12
2018-09-21T09:51:04.140Z,1002.99
2018-09-21T09:52:04.137Z,1002.93
2018-09-21T09:53:04.128Z,1003.03
2018-09-21T09:54:04.116Z,1003.05
2018-09-21T09:55:04.112Z,1003.15
2018-09-21T09:56:04.114Z,1003.09
2018-09-21T09:57:04.107Z,1003.05
2018-09-21T09:58:04.103Z,1003.12
2018-09-21T09:59:04.091Z,1002.95
2018-09-21T10:00:04.086Z,1002.84
2018-09-21T10:01:04.116Z,1002.87
2018-09-21T10:02:04.070Z,1002.84
2018-09-21T10:03:04.068Z,1002.88
2018-09-21T10:04:04.064Z,1002.75
2018-09-21T10:05:04.062Z,1002.70
2018-09-21T10:06:04.046Z,1002.76
2018-09-21T10:07:04.046Z,1002.86
2018-09-21T10:08:04.042Z,1002.76
2018-09-21T10:09:04.034Z,1002.65
2018-09-21T10:10:04.031Z,1002.73
2018-09-21T10:11:04.021Z,1002.63
2018-09-21T10:12:04.018Z,1002.63
2018-09-21T10:13:04.014Z,1002.81
2018-09-21T10:14:04.009Z,1002.92
2018-09-21T10:15:04.005Z,1002.75
2018-09-21T10:16:04.001Z,1002.77
2018-09-21T10:17:04.001Z,1002.80
2018-09-21T10:18:03.986Z,1002.83
2018-09-21T10:19:03.984Z,1002.87
2018-09-21T10:20:03.980Z,1002.77
2018-09-21T10:21:03.968Z,1002.77
2018-09-21T10:22:03.968Z,1002.60
2018-09-21T10:23:03.959Z,1002.47
2018-09-21T10:24:04.011Z,1002.65
2018-09-21T10:25:03.951Z,1002.62
2018-09-21T10:26:03.942Z,1002.63
2018-09-21T10:27:03.963Z,1002.63
2018-09-21T10:28:04.133Z,1002.57
2018-09-21T10:29:03.925Z,1002.46
2018-09-21T10:30:03.928Z,1002.42
2018-09-21T10:31:03.921Z,1002.40
2018-09-21T10:32:03.934Z,1002.52
2018-09-21T10:33:03.908Z,1002.51
2018-09-21T10:34:03.903Z,1002.74
2018-09-21T10:35:03.900Z,1002.50
2018-09-21T10:36:03.889Z,1002.54
2018-09-21T10:37:03.959Z,1002.33
2018-09-21T10:38:03.881Z,1002.33
2018-09-21T10:39:03.957Z,1002.20
2018-09-21T10:40:03.961Z,1002.12
2018-09-21T10:41:03.874Z,1002.08
2018-09-21T10:42:03.863Z,1002.24
2018-09-21T10:43:03.936Z,1002.11
2018-09-21T10:44:03.851Z,1002.10
2018-09-21T10:45:03.851Z,1002.07
2018-09-21T10:46:03.843Z,1002.16
2018-09-21T10:47:03.836Z,1002.17
2018-09-21T10:48:03.833Z,1001.96
2018-09-21T10:49:03.836Z,1002.02
2018-09-21T10:50:03.823Z,1001.93
2018-09-21T10:51:03.816Z,1002.06
2018-09-21T10:52:03.811Z,1001.91
2018-09-21T10:53:03.814Z,1001.91
2018-09-21T10:54:03.806Z,1002.05
2018-09-21T10:55:03.797Z,1002.20
2018-09-21T10:56:03.793Z,1002.39
2018-09-21T10:57:03.793Z,1002.48
2018-09-21T10:58:03.793Z,1002.14
2018-09-21T10:59:03.780Z,1002.11
2018-09-21T11:00:03.775Z,1002.00
2018-09-21T11:01:03.790Z,1001.84
2018-09-21T11:02:03.762Z,1001.75
2018-09-21T11:03:03.757Z,1001.65
2018-09-21T11:04:03.759Z,1001.70
2018-09-21T11:05:03.755Z,1001.84
2018-09-21T11:06:03.743Z,1001.95
2018-09-21T11:07:03.777Z,1002.39
2018-09-21T11:08:03.733Z,1002.14
2018-09-21T11:09:03.731Z,1001.89
2018-09-21T11:10:03.726Z,1002.57
2018-09-21T11:11:03.717Z,1002.67
2018-09-21T11:12:03.715Z,1002.77
2018-09-21T11:13:03.824Z,1002.06
2018-09-21T11:14:03.702Z,1002.30
2018-09-21T11:15:03.707Z,1002.61
2018-09-21T11:16:03.693Z,1002.15
2018-09-21T11:17:03.690Z,1002.08
2018-09-21T11:18:03.683Z,1001.89
2018-09-21T11:19:03.681Z,1001.59
2018-09-21T11:20:46.208Z,1001.53
2018-09-21T11:21:46.225Z,1001.42
2018-09-21T11:22:46.203Z,1001.26
2018-09-21T11:23:46.197Z,1001.24
2018-09-21T11:24:46.190Z,1001.29
2018-09-21T11:25:46.191Z,1001.64
2018-09-21T11:26:46.184Z,1001.53
2018-09-21T11:27:46.177Z,1002.27
2018-09-21T11:28:46.175Z,1002.20
2018-09-21T11:29:46.175Z,1002.12
2018-09-21T11:30:46.179Z,1002.03
2018-09-21T11:31:46.163Z,1002.08
2018-09-21T11:32:46.155Z,1002.12
2018-09-21T11:33:46.151Z,1002.08
2018-09-21T11:34:46.145Z,1002.18
2018-09-21T11:35:46.143Z,1001.88
2018-09-21T11:36:46.137Z,1001.86
2018-09-21T11:37:46.149Z,1001.76
2018-09-21T11:38:46.135Z,1001.83
2018-09-21T11:39:46.125Z,1001.66
2018-09-21T11:40:46.120Z,1001.81
2018-09-21T11:41:46.115Z,1001.76
2018-09-21T11:42:46.317Z,1001.63
2018-09-21T11:43:46.108Z,1001.65
2018-09-21T11:44:46.101Z,1001.57
2018-09-21T11:45:46.099Z,1001.55
2018-09-21T11:46:46.135Z,1001.76
2018-09-21T11:47:46.121Z,1001.45
2018-09-21T11:48:46.085Z,1001.47
2018-09-21T11:49:46.085Z,1001.26
2018-09-21T11:50:46.077Z,1000.95
2018-09-21T11:51:46.081Z,1001.32
2018-09-21T11:52:46.079Z,1000.93
2018-09-21T11:53:46.071Z,1000.97
2018-09-21T11:54:46.081Z,1000.72
2018-09-21T11:55:46.063Z,1001.05
2018-09-21T11:56:46.061Z,1001.20
2018-09-21T11:57:46.057Z,1001.32
2018-09-21T11:58:46.055Z,1001.30
2018-09-21T11:59:46.050Z,1001.02
2018-09-21T12:00:46.051Z,1000.65
2018-09-21T12:01:46.067Z,1000.66
2018-09-21T12:02:46.045Z,1000.85
2018-09-21T12:03:46.037Z,1001.41
2018-09-21T12:04:46.033Z,1001.48
2018-09-21T12:05:46.032Z,1001.26